sensor_id;sensor_type;location;lat;lon;timestamp;P1;durP1;ratioP1;P2;durP2;ratioP2
7835;SDS011;3963;42.658;23.298;2023-02-08T00:00:37;17.67;;;8.37;;
7835;SDS011;3963;42.658;23.298;2023-02-08T00:03:06;17.67;;;9.23;;
7835;SDS011;3963;42.658;23.298;2023-02-08T00:05:33;19.60;;;9.10;;
7835;SDS011;3963;42.658;23.298;2023-02-08T00:07:59;20.90;;;9.87;;
7835;SDS011;3963;42.658;23.298;2023-02-08T00:10:26;19.30;;;9.87;;
7835;SDS011;3963;42.658;23.298;2023-02-08T00:12:53;18.60;;;9.93;;
7835;SDS011;3963;42.658;23.298;2023-02-08T00:15:20;17.77;;;7.83;;
7835;SDS011;3963;42.658;23.298;2023-02-08T00:17:47;11.13;;;6.50;;
7835;SDS011;3963;42.658;23.298;2023-02-08T00:22:43;15.97;;;8.40;;
7835;SDS011;3963;42.658;23.298;2023-02-08T00:25:10;20.25;;;8.23;;
7835;SDS011;3963;42.658;23.298;2023-02-08T00:27:37;13.05;;;7.93;;
7835;SDS011;3963;42.658;23.298;2023-02-08T00:30:04;20.07;;;11.03;;
7835;SDS011;3963;42.658;23.298;2023-02-08T00:32:31;19.77;;;10.02;;
7835;SDS011;3963;42.658;23.298;2023-02-08T00:34:58;16.07;;;8.93;;
7835;SDS011;3963;42.658;23.298;2023-02-08T00:37:26;19.67;;;10.20;;
7835;SDS011;3963;42.658;23.298;2023-02-08T00:39:53;22.50;;;11.40;;
7835;SDS011;3963;42.658;23.298;2023-02-08T00:42:20;26.17;;;10.90;;
7835;SDS011;3963;42.658;23.298;2023-02-08T00:44:47;18.67;;;10.50;;
7835;SDS011;3963;42.658;23.298;2023-02-08T00:47:13;20.60;;;10.00;;
7835;SDS011;3963;42.658;23.298;2023-02-08T00:49:40;19.07;;;8.33;;
7835;SDS011;3963;42.658;23.298;2023-02-08T00:52:07;22.67;;;9.87;;
7835;SDS011;3963;42.658;23.298;2023-02-08T00:54:36;23.50;;;10.13;;
7835;SDS011;3963;42.658;23.298;2023-02-08T00:57:04;22.00;;;10.07;;
7835;SDS011;3963;42.658;23.298;2023-02-08T00:59:31;19.13;;;9.60;;
7835;SDS011;3963;42.658;23.298;2023-02-08T01:01:59;18.87;;;9.93;;
7835;SDS011;3963;42.658;23.298;2023-02-08T01:04:26;25.00;;;9.53;;
7835;SDS011;3963;42.658;23.298;2023-02-08T01:06:53;25.70;;;10.43;;
7835;SDS011;3963;42.658;23.298;2023-02-08T01:09:19;22.50;;;10.50;;
7835;SDS011;3963;42.658;23.298;2023-02-08T01:11:48;17.57;;;9.50;;
7835;SDS011;3963;42.658;23.298;2023-02-08T01:14:15;14.57;;;8.40;;
7835;SDS011;3963;42.658;23.298;2023-02-08T01:16:41;22.97;;;10.87;;
7835;SDS011;3963;42.658;23.298;2023-02-08T01:19:08;22.37;;;9.90;;
7835;SDS011;3963;42.658;23.298;2023-02-08T01:21:36;17.93;;;9.80;;
7835;SDS011;3963;42.658;23.298;2023-02-08T01:24:06;22.43;;;10.87;;
7835;SDS011;3963;42.658;23.298;2023-02-08T01:26:33;19.30;;;10.30;;
7835;SDS011;3963;42.658;23.298;2023-02-08T01:29:02;22.33;;;11.47;;
7835;SDS011;3963;42.658;23.298;2023-02-08T01:31:30;26.30;;;12.47;;
7835;SDS011;3963;42.658;23.298;2023-02-08T01:33:58;20.93;;;10.80;;
7835;SDS011;3963;42.658;23.298;2023-02-08T01:36:26;20.80;;;10.63;;
7835;SDS011;3963;42.658;23.298;2023-02-08T01:38:54;23.93;;;11.33;;
7835;SDS011;3963;42.658;23.298;2023-02-08T01:41:22;19.90;;;10.63;;
7835;SDS011;3963;42.658;23.298;2023-02-08T01:44:02;19.83;;;9.43;;
7835;SDS011;3963;42.658;23.298;2023-02-08T01:46:32;21.87;;;11.57;;
7835;SDS011;3963;42.658;23.298;2023-02-08T01:49:01;21.93;;;10.93;;
7835;SDS011;3963;42.658;23.298;2023-02-08T01:51:31;19.30;;;10.40;;
7835;SDS011;3963;42.658;23.298;2023-02-08T01:54:01;20.23;;;10.40;;
7835;SDS011;3963;42.658;23.298;2023-02-08T01:56:32;18.63;;;10.47;;
7835;SDS011;3963;42.658;23.298;2023-02-08T01:59:03;21.83;;;11.03;;
7835;SDS011;3963;42.658;23.298;2023-02-08T02:01:34;26.07;;;11.03;;
7835;SDS011;3963;42.658;23.298;2023-02-08T02:04:04;21.97;;;12.27;;
7835;SDS011;3963;42.658;23.298;2023-02-08T02:06:32;20.67;;;10.77;;
7835;SDS011;3963;42.658;23.298;2023-02-08T02:09:04;22.77;;;10.83;;
7835;SDS011;3963;42.658;23.298;2023-02-08T02:11:38;26.87;;;10.90;;
7835;SDS011;3963;42.658;23.298;2023-02-08T02:14:07;25.20;;;12.07;;
7835;SDS011;3963;42.658;23.298;2023-02-08T02:16:34;25.73;;;13.63;;
7835;SDS011;3963;42.658;23.298;2023-02-08T02:19:01;28.87;;;13.53;;
7835;SDS011;3963;42.658;23.298;2023-02-08T02:21:43;26.53;;;12.57;;
7835;SDS011;3963;42.658;23.298;2023-02-08T02:27:17;25.37;;;12.20;;
7835;SDS011;3963;42.658;23.298;2023-02-08T02:33:06;26.43;;;11.47;;
7835;SDS011;3963;42.658;23.298;2023-02-08T02:35:45;22.73;;;10.60;;
7835;SDS011;3963;42.658;23.298;2023-02-08T02:38:20;25.67;;;13.10;;
7835;SDS011;3963;42.658;23.298;2023-02-08T02:40:58;24.93;;;12.57;;
7835;SDS011;3963;42.658;23.298;2023-02-08T02:43:32;28.00;;;13.17;;
7835;SDS011;3963;42.658;23.298;2023-02-08T02:46:07;31.93;;;13.93;;
7835;SDS011;3963;42.658;23.298;2023-02-08T02:48:43;29.40;;;13.80;;
7835;SDS011;3963;42.658;23.298;2023-02-08T02:51:16;25.17;;;12.60;;
7835;SDS011;3963;42.658;23.298;2023-02-08T02:53:49;27.07;;;13.53;;
7835;SDS011;3963;42.658;23.298;2023-02-08T02:56:21;25.43;;;14.43;;
7835;SDS011;3963;42.658;23.298;2023-02-08T02:58:52;25.17;;;12.47;;
7835;SDS011;3963;42.658;23.298;2023-02-08T03:01:23;25.27;;;13.87;;
7835;SDS011;3963;42.658;23.298;2023-02-08T03:03:52;27.77;;;13.73;;
7835;SDS011;3963;42.658;23.298;2023-02-08T03:06:22;31.47;;;14.00;;
7835;SDS011;3963;42.658;23.298;2023-02-08T03:09:03;24.83;;;12.57;;
7835;SDS011;3963;42.658;23.298;2023-02-08T03:11:41;31.17;;;14.63;;
7835;SDS011;3963;42.658;23.298;2023-02-08T03:14:19;37.93;;;17.83;;
7835;SDS011;3963;42.658;23.298;2023-02-08T03:19:57;26.53;;;14.17;;
7835;SDS011;3963;42.658;23.298;2023-02-08T03:22:32;28.57;;;14.63;;
7835;SDS011;3963;42.658;23.298;2023-02-08T03:25:09;33.27;;;15.17;;
7835;SDS011;3963;42.658;23.298;2023-02-08T03:27:44;24.33;;;14.30;;
7835;SDS011;3963;42.658;23.298;2023-02-08T03:30:19;31.20;;;14.10;;
7835;SDS011;3963;42.658;23.298;2023-02-08T03:32:53;28.43;;;14.00;;
7835;SDS011;3963;42.658;23.298;2023-02-08T03:35:28;30.50;;;13.60;;
7835;SDS011;3963;42.658;23.298;2023-02-08T03:38:00;23.00;;;13.70;;
7835;SDS011;3963;42.658;23.298;2023-02-08T03:40:31;28.23;;;13.97;;
7835;SDS011;3963;42.658;23.298;2023-02-08T03:43:07;28.57;;;14.03;;
7835;SDS011;3963;42.658;23.298;2023-02-08T03:45:38;26.83;;;13.90;;
7835;SDS011;3963;42.658;23.298;2023-02-08T03:48:08;26.53;;;13.27;;
7835;SDS011;3963;42.658;23.298;2023-02-08T03:50:40;27.27;;;13.77;;
7835;SDS011;3963;42.658;23.298;2023-02-08T03:53:11;29.37;;;14.27;;
7835;SDS011;3963;42.658;23.298;2023-02-08T03:55:42;29.90;;;13.63;;
7835;SDS011;3963;42.658;23.298;2023-02-08T03:58:14;33.37;;;14.10;;
7835;SDS011;3963;42.658;23.298;2023-02-08T04:00:48;30.33;;;14.93;;
7835;SDS011;3963;42.658;23.298;2023-02-08T04:03:20;33.33;;;14.77;;
7835;SDS011;3963;42.658;23.298;2023-02-08T04:05:51;28.80;;;14.20;;
7835;SDS011;3963;42.658;23.298;2023-02-08T04:08:18;28.93;;;15.23;;
7835;SDS011;3963;42.658;23.298;2023-02-08T04:10:46;28.43;;;14.70;;
7835;SDS011;3963;42.658;23.298;2023-02-08T04:13:13;34.07;;;15.93;;
7835;SDS011;3963;42.658;23.298;2023-02-08T04:15:39;32.67;;;14.40;;
7835;SDS011;3963;42.658;23.298;2023-02-08T04:18:08;31.90;;;15.30;;
7835;SDS011;3963;42.658;23.298;2023-02-08T04:20:35;30.13;;;15.43;;
7835;SDS011;3963;42.658;23.298;2023-02-08T04:23:03;29.30;;;14.70;;
7835;SDS011;3963;42.658;23.298;2023-02-08T04:25:30;39.97;;;16.20;;
7835;SDS011;3963;42.658;23.298;2023-02-08T04:27:57;30.37;;;14.77;;
7835;SDS011;3963;42.658;23.298;2023-02-08T04:30:24;34.27;;;16.17;;
7835;SDS011;3963;42.658;23.298;2023-02-08T04:32:51;27.53;;;14.83;;
7835;SDS011;3963;42.658;23.298;2023-02-08T04:35:17;35.83;;;16.43;;
7835;SDS011;3963;42.658;23.298;2023-02-08T04:37:44;32.67;;;16.40;;
7835;SDS011;3963;42.658;23.298;2023-02-08T04:40:12;31.80;;;16.17;;
7835;SDS011;3963;42.658;23.298;2023-02-08T04:42:40;32.07;;;15.50;;
7835;SDS011;3963;42.658;23.298;2023-02-08T04:45:07;32.83;;;17.35;;
7835;SDS011;3963;42.658;23.298;2023-02-08T04:47:34;30.63;;;16.73;;
7835;SDS011;3963;42.658;23.298;2023-02-08T04:50:01;33.13;;;15.53;;
7835;SDS011;3963;42.658;23.298;2023-02-08T04:52:28;30.90;;;15.47;;
7835;SDS011;3963;42.658;23.298;2023-02-08T04:54:55;32.93;;;15.93;;
7835;SDS011;3963;42.658;23.298;2023-02-08T04:57:23;34.40;;;15.47;;
7835;SDS011;3963;42.658;23.298;2023-02-08T04:59:50;34.97;;;15.87;;
7835;SDS011;3963;42.658;23.298;2023-02-08T05:02:17;29.40;;;13.50;;
7835;SDS011;3963;42.658;23.298;2023-02-08T05:04:43;30.37;;;15.23;;
7835;SDS011;3963;42.658;23.298;2023-02-08T05:07:10;32.47;;;14.93;;
7835;SDS011;3963;42.658;23.298;2023-02-08T05:09:37;30.80;;;15.53;;
7835;SDS011;3963;42.658;23.298;2023-02-08T05:12:04;34.30;;;15.97;;
7835;SDS011;3963;42.658;23.298;2023-02-08T05:14:32;38.50;;;20.20;;
7835;SDS011;3963;42.658;23.298;2023-02-08T05:16:59;36.13;;;17.43;;
7835;SDS011;3963;42.658;23.298;2023-02-08T05:19:26;36.33;;;16.13;;
7835;SDS011;3963;42.658;23.298;2023-02-08T05:21:52;37.80;;;16.70;;
7835;SDS011;3963;42.658;23.298;2023-02-08T05:24:19;30.33;;;16.17;;
7835;SDS011;3963;42.658;23.298;2023-02-08T05:26:46;32.10;;;16.20;;
7835;SDS011;3963;42.658;23.298;2023-02-08T05:29:13;32.33;;;16.23;;
7835;SDS011;3963;42.658;23.298;2023-02-08T05:31:41;36.40;;;16.37;;
7835;SDS011;3963;42.658;23.298;2023-02-08T05:34:07;32.00;;;15.97;;
7835;SDS011;3963;42.658;23.298;2023-02-08T05:36:34;32.30;;;16.77;;
7835;SDS011;3963;42.658;23.298;2023-02-08T05:39:01;33.10;;;15.57;;
7835;SDS011;3963;42.658;23.298;2023-02-08T05:41:28;33.03;;;15.53;;
7835;SDS011;3963;42.658;23.298;2023-02-08T05:43:55;27.17;;;14.43;;
7835;SDS011;3963;42.658;23.298;2023-02-08T05:46:22;34.80;;;15.73;;
7835;SDS011;3963;42.658;23.298;2023-02-08T05:48:51;32.10;;;16.07;;
7835;SDS011;3963;42.658;23.298;2023-02-08T05:51:17;30.43;;;14.10;;
7835;SDS011;3963;42.658;23.298;2023-02-08T05:53:44;31.33;;;14.70;;
7835;SDS011;3963;42.658;23.298;2023-02-08T05:56:11;33.50;;;16.30;;
7835;SDS011;3963;42.658;23.298;2023-02-08T05:58:38;29.47;;;15.10;;
7835;SDS011;3963;42.658;23.298;2023-02-08T06:01:08;30.97;;;14.47;;
7835;SDS011;3963;42.658;23.298;2023-02-08T06:03:35;31.27;;;15.50;;
7835;SDS011;3963;42.658;23.298;2023-02-08T06:06:04;32.57;;;16.47;;
7835;SDS011;3963;42.658;23.298;2023-02-08T06:08:31;30.53;;;15.53;;
7835;SDS011;3963;42.658;23.298;2023-02-08T06:10:58;29.57;;;14.53;;
7835;SDS011;3963;42.658;23.298;2023-02-08T06:13:25;33.53;;;15.47;;
7835;SDS011;3963;42.658;23.298;2023-02-08T06:15:53;41.63;;;19.47;;
7835;SDS011;3963;42.658;23.298;2023-02-08T06:18:20;33.40;;;15.93;;
7835;SDS011;3963;42.658;23.298;2023-02-08T06:20:46;33.87;;;15.73;;
7835;SDS011;3963;42.658;23.298;2023-02-08T06:23:15;28.07;;;14.50;;
7835;SDS011;3963;42.658;23.298;2023-02-08T06:25:41;31.97;;;14.50;;
7835;SDS011;3963;42.658;23.298;2023-02-08T06:28:08;40.77;;;21.37;;
7835;SDS011;3963;42.658;23.298;2023-02-08T06:30:35;37.27;;;20.33;;
7835;SDS011;3963;42.658;23.298;2023-02-08T06:33:02;32.60;;;15.43;;
7835;SDS011;3963;42.658;23.298;2023-02-08T06:35:29;29.83;;;14.97;;
7835;SDS011;3963;42.658;23.298;2023-02-08T06:37:56;33.33;;;15.97;;
7835;SDS011;3963;42.658;23.298;2023-02-08T06:40:25;35.17;;;17.03;;
7835;SDS011;3963;42.658;23.298;2023-02-08T06:42:52;32.57;;;16.03;;
7835;SDS011;3963;42.658;23.298;2023-02-08T06:45:18;27.43;;;13.60;;
7835;SDS011;3963;42.658;23.298;2023-02-08T06:47:45;24.50;;;13.07;;
7835;SDS011;3963;42.658;23.298;2023-02-08T06:50:12;23.80;;;13.03;;
7835;SDS011;3963;42.658;23.298;2023-02-08T06:52:40;26.63;;;13.87;;
7835;SDS011;3963;42.658;23.298;2023-02-08T06:55:07;29.60;;;13.80;;
7835;SDS011;3963;42.658;23.298;2023-02-08T06:57:35;26.67;;;13.53;;
7835;SDS011;3963;42.658;23.298;2023-02-08T07:00:02;27.97;;;14.93;;
7835;SDS011;3963;42.658;23.298;2023-02-08T07:02:29;32.03;;;16.27;;
7835;SDS011;3963;42.658;23.298;2023-02-08T07:04:56;29.27;;;16.63;;
7835;SDS011;3963;42.658;23.298;2023-02-08T07:07:23;30.70;;;14.73;;
7835;SDS011;3963;42.658;23.298;2023-02-08T07:09:50;32.50;;;16.33;;
7835;SDS011;3963;42.658;23.298;2023-02-08T07:12:16;38.20;;;16.27;;
7835;SDS011;3963;42.658;23.298;2023-02-08T07:14:45;29.80;;;15.27;;
7835;SDS011;3963;42.658;23.298;2023-02-08T07:17:12;31.47;;;15.47;;
7835;SDS011;3963;42.658;23.298;2023-02-08T07:19:39;31.40;;;13.50;;
7835;SDS011;3963;42.658;23.298;2023-02-08T07:22:05;26.27;;;14.10;;
7835;SDS011;3963;42.658;23.298;2023-02-08T07:24:33;36.20;;;16.53;;
7835;SDS011;3963;42.658;23.298;2023-02-08T07:27:01;33.57;;;16.87;;
7835;SDS011;3963;42.658;23.298;2023-02-08T07:29:28;36.37;;;16.70;;
7835;SDS011;3963;42.658;23.298;2023-02-08T07:31:57;34.97;;;16.23;;
7835;SDS011;3963;42.658;23.298;2023-02-08T07:34:24;30.07;;;15.17;;
7835;SDS011;3963;42.658;23.298;2023-02-08T07:36:51;30.47;;;15.67;;
7835;SDS011;3963;42.658;23.298;2023-02-08T07:39:18;33.87;;;16.23;;
7835;SDS011;3963;42.658;23.298;2023-02-08T07:41:45;29.73;;;14.63;;
7835;SDS011;3963;42.658;23.298;2023-02-08T07:44:12;27.23;;;14.07;;
7835;SDS011;3963;42.658;23.298;2023-02-08T07:46:39;34.93;;;15.63;;
7835;SDS011;3963;42.658;23.298;2023-02-08T07:49:08;32.20;;;16.37;;
7835;SDS011;3963;42.658;23.298;2023-02-08T07:51:34;33.13;;;14.27;;
7835;SDS011;3963;42.658;23.298;2023-02-08T07:54:01;29.27;;;15.77;;
7835;SDS011;3963;42.658;23.298;2023-02-08T07:56:28;30.17;;;14.63;;
7835;SDS011;3963;42.658;23.298;2023-02-08T07:58:55;29.70;;;15.27;;
7835;SDS011;3963;42.658;23.298;2023-02-08T08:01:22;34.27;;;17.63;;
7835;SDS011;3963;42.658;23.298;2023-02-08T08:03:48;28.67;;;16.13;;
7835;SDS011;3963;42.658;23.298;2023-02-08T08:06:17;26.63;;;14.77;;
7835;SDS011;3963;42.658;23.298;2023-02-08T08:08:45;29.43;;;15.63;;
7835;SDS011;3963;42.658;23.298;2023-02-08T08:11:11;28.00;;;14.33;;
7835;SDS011;3963;42.658;23.298;2023-02-08T08:13:38;31.27;;;14.73;;
7835;SDS011;3963;42.658;23.298;2023-02-08T08:16:05;28.93;;;14.57;;
7835;SDS011;3963;42.658;23.298;2023-02-08T08:18:32;32.67;;;15.33;;
7835;SDS011;3963;42.658;23.298;2023-02-08T08:21:00;27.13;;;15.73;;
7835;SDS011;3963;42.658;23.298;2023-02-08T08:23:28;29.73;;;15.90;;
7835;SDS011;3963;42.658;23.298;2023-02-08T08:25:55;32.97;;;16.03;;
7835;SDS011;3963;42.658;23.298;2023-02-08T08:28:21;34.83;;;16.10;;
7835;SDS011;3963;42.658;23.298;2023-02-08T08:30:48;31.13;;;15.43;;
7835;SDS011;3963;42.658;23.298;2023-02-08T08:33:15;32.93;;;16.17;;
7835;SDS011;3963;42.658;23.298;2023-02-08T08:35:42;27.77;;;15.17;;
7835;SDS011;3963;42.658;23.298;2023-02-08T08:38:11;30.23;;;16.03;;
7835;SDS011;3963;42.658;23.298;2023-02-08T08:40:39;32.47;;;16.67;;
7835;SDS011;3963;42.658;23.298;2023-02-08T08:43:06;34.13;;;16.60;;
7835;SDS011;3963;42.658;23.298;2023-02-08T08:45:32;34.27;;;18.23;;
7835;SDS011;3963;42.658;23.298;2023-02-08T08:48:00;33.10;;;16.13;;
7835;SDS011;3963;42.658;23.298;2023-02-08T08:50:27;34.20;;;16.90;;
7835;SDS011;3963;42.658;23.298;2023-02-08T08:52:53;30.00;;;14.70;;
7835;SDS011;3963;42.658;23.298;2023-02-08T08:55:20;27.47;;;14.57;;
7835;SDS011;3963;42.658;23.298;2023-02-08T08:57:50;32.27;;;16.23;;
7835;SDS011;3963;42.658;23.298;2023-02-08T09:00:17;31.07;;;15.00;;
7835;SDS011;3963;42.658;23.298;2023-02-08T09:02:44;30.53;;;15.23;;
7835;SDS011;3963;42.658;23.298;2023-02-08T09:05:11;26.83;;;15.27;;
7835;SDS011;3963;42.658;23.298;2023-02-08T09:07:38;28.63;;;15.80;;
7835;SDS011;3963;42.658;23.298;2023-02-08T09:10:04;31.57;;;16.20;;
7835;SDS011;3963;42.658;23.298;2023-02-08T09:12:31;30.30;;;15.30;;
7835;SDS011;3963;42.658;23.298;2023-02-08T09:14:59;30.00;;;16.97;;
7835;SDS011;3963;42.658;23.298;2023-02-08T09:17:26;31.63;;;16.03;;
7835;SDS011;3963;42.658;23.298;2023-02-08T09:19:53;29.03;;;14.70;;
7835;SDS011;3963;42.658;23.298;2023-02-08T09:22:19;27.57;;;13.20;;
7835;SDS011;3963;42.658;23.298;2023-02-08T09:24:46;25.00;;;14.00;;
7835;SDS011;3963;42.658;23.298;2023-02-08T09:27:13;27.00;;;14.53;;
7835;SDS011;3963;42.658;23.298;2023-02-08T09:29:43;30.80;;;15.40;;
7835;SDS011;3963;42.658;23.298;2023-02-08T09:32:11;25.80;;;13.63;;
7835;SDS011;3963;42.658;23.298;2023-02-08T09:34:38;23.40;;;11.50;;
7835;SDS011;3963;42.658;23.298;2023-02-08T09:37:04;24.80;;;12.47;;
7835;SDS011;3963;42.658;23.298;2023-02-08T09:39:31;23.37;;;12.80;;
7835;SDS011;3963;42.658;23.298;2023-02-08T09:42:12;23.43;;;12.80;;
7835;SDS011;3963;42.658;23.298;2023-02-08T09:44:50;24.80;;;13.10;;
7835;SDS011;3963;42.658;23.298;2023-02-08T09:47:32;25.63;;;13.87;;
7835;SDS011;3963;42.658;23.298;2023-02-08T09:50:01;25.70;;;13.17;;
7835;SDS011;3963;42.658;23.298;2023-02-08T09:52:32;23.30;;;12.83;;
7835;SDS011;3963;42.658;23.298;2023-02-08T09:55:09;25.03;;;11.67;;
7835;SDS011;3963;42.658;23.298;2023-02-08T09:57:45;19.63;;;10.63;;
7835;SDS011;3963;42.658;23.298;2023-02-08T10:00:15;23.43;;;9.83;;
7835;SDS011;3963;42.658;23.298;2023-02-08T10:02:48;23.47;;;11.23;;
7835;SDS011;3963;42.658;23.298;2023-02-08T10:05:19;17.07;;;10.20;;
7835;SDS011;3963;42.658;23.298;2023-02-08T10:07:55;26.23;;;11.47;;
7835;SDS011;3963;42.658;23.298;2023-02-08T10:10:25;23.87;;;11.13;;
7835;SDS011;3963;42.658;23.298;2023-02-08T10:13:05;26.73;;;12.73;;
7835;SDS011;3963;42.658;23.298;2023-02-08T10:15:42;25.57;;;11.83;;
7835;SDS011;3963;42.658;23.298;2023-02-08T10:18:30;21.27;;;10.80;;
7835;SDS011;3963;42.658;23.298;2023-02-08T10:21:13;18.47;;;10.53;;
7835;SDS011;3963;42.658;23.298;2023-02-08T10:23:59;19.90;;;10.40;;
7835;SDS011;3963;42.658;23.298;2023-02-08T10:26:42;18.07;;;8.97;;
7835;SDS011;3963;42.658;23.298;2023-02-08T10:29:15;18.53;;;10.50;;
7835;SDS011;3963;42.658;23.298;2023-02-08T10:31:57;14.90;;;8.67;;
7835;SDS011;3963;42.658;23.298;2023-02-08T10:34:34;23.87;;;10.10;;
7835;SDS011;3963;42.658;23.298;2023-02-08T10:37:10;19.60;;;10.03;;
7835;SDS011;3963;42.658;23.298;2023-02-08T10:39:39;20.97;;;11.97;;
7835;SDS011;3963;42.658;23.298;2023-02-08T10:42:09;22.03;;;12.23;;
7835;SDS011;3963;42.658;23.298;2023-02-08T10:44:42;23.53;;;13.90;;
7835;SDS011;3963;42.658;23.298;2023-02-08T10:47:18;27.07;;;13.40;;
7835;SDS011;3963;42.658;23.298;2023-02-08T10:49:52;20.60;;;10.43;;
7835;SDS011;3963;42.658;23.298;2023-02-08T10:52:23;17.60;;;10.67;;
7835;SDS011;3963;42.658;23.298;2023-02-08T10:54:50;17.60;;;10.53;;
7835;SDS011;3963;42.658;23.298;2023-02-08T10:57:19;17.20;;;10.03;;
7835;SDS011;3963;42.658;23.298;2023-02-08T10:59:50;19.57;;;10.20;;
7835;SDS011;3963;42.658;23.298;2023-02-08T11:02:22;18.53;;;10.13;;
7835;SDS011;3963;42.658;23.298;2023-02-08T11:04:57;22.87;;;10.57;;
7835;SDS011;3963;42.658;23.298;2023-02-08T11:07:25;20.53;;;10.80;;
7835;SDS011;3963;42.658;23.298;2023-02-08T11:09:52;18.90;;;9.33;;
7835;SDS011;3963;42.658;23.298;2023-02-08T11:12:19;21.30;;;10.97;;
7835;SDS011;3963;42.658;23.298;2023-02-08T11:14:50;16.37;;;9.67;;
7835;SDS011;3963;42.658;23.298;2023-02-08T11:17:22;18.03;;;9.67;;
7835;SDS011;3963;42.658;23.298;2023-02-08T11:19:52;22.40;;;10.13;;
7835;SDS011;3963;42.658;23.298;2023-02-08T11:22:21;15.80;;;9.43;;
7835;SDS011;3963;42.658;23.298;2023-02-08T11:24:53;19.93;;;11.43;;
7835;SDS011;3963;42.658;23.298;2023-02-08T11:27:28;18.60;;;10.87;;
7835;SDS011;3963;42.658;23.298;2023-02-08T11:30:10;20.60;;;10.50;;
7835;SDS011;3963;42.658;23.298;2023-02-08T11:32:44;23.13;;;11.53;;
7835;SDS011;3963;42.658;23.298;2023-02-08T11:35:19;18.53;;;9.90;;
7835;SDS011;3963;42.658;23.298;2023-02-08T11:37:50;15.80;;;9.33;;
7835;SDS011;3963;42.658;23.298;2023-02-08T11:40:20;19.27;;;10.40;;
7835;SDS011;3963;42.658;23.298;2023-02-08T11:42:48;21.53;;;10.47;;
7835;SDS011;3963;42.658;23.298;2023-02-08T11:45:17;18.20;;;10.47;;
7835;SDS011;3963;42.658;23.298;2023-02-08T11:47:46;17.33;;;8.97;;
7835;SDS011;3963;42.658;23.298;2023-02-08T11:50:20;21.63;;;10.50;;
7835;SDS011;3963;42.658;23.298;2023-02-08T11:52:53;19.50;;;10.13;;
7835;SDS011;3963;42.658;23.298;2023-02-08T11:55:24;18.70;;;10.27;;
7835;SDS011;3963;42.658;23.298;2023-02-08T11:57:59;21.90;;;10.17;;
7835;SDS011;3963;42.658;23.298;2023-02-08T12:00:28;14.67;;;9.03;;
7835;SDS011;3963;42.658;23.298;2023-02-08T12:02:58;16.90;;;9.73;;
7835;SDS011;3963;42.658;23.298;2023-02-08T12:05:28;18.70;;;8.83;;
7835;SDS011;3963;42.658;23.298;2023-02-08T12:08:10;18.30;;;8.80;;
7835;SDS011;3963;42.658;23.298;2023-02-08T12:10:50;19.67;;;10.00;;
7835;SDS011;3963;42.658;23.298;2023-02-08T12:13:31;19.80;;;8.93;;
7835;SDS011;3963;42.658;23.298;2023-02-08T12:16:20;16.03;;;8.50;;
7835;SDS011;3963;42.658;23.298;2023-02-08T12:19:05;17.20;;;8.97;;
7835;SDS011;3963;42.658;23.298;2023-02-08T12:21:52;16.53;;;8.70;;
7835;SDS011;3963;42.658;23.298;2023-02-08T12:24:29;15.97;;;8.70;;
7835;SDS011;3963;42.658;23.298;2023-02-08T12:27:06;14.10;;;8.03;;
7835;SDS011;3963;42.658;23.298;2023-02-08T12:29:42;21.20;;;9.40;;
7835;SDS011;3963;42.658;23.298;2023-02-08T12:32:18;14.20;;;8.70;;
7835;SDS011;3963;42.658;23.298;2023-02-08T12:35:14;16.37;;;9.50;;
7835;SDS011;3963;42.658;23.298;2023-02-08T12:38:04;16.07;;;8.23;;
7835;SDS011;3963;42.658;23.298;2023-02-08T12:40:56;14.20;;;6.60;;
7835;SDS011;3963;42.658;23.298;2023-02-08T12:43:34;24.37;;;13.23;;
7835;SDS011;3963;42.658;23.298;2023-02-08T12:46:14;12.33;;;7.80;;
7835;SDS011;3963;42.658;23.298;2023-02-08T12:49:04;15.13;;;6.80;;
7835;SDS011;3963;42.658;23.298;2023-02-08T12:51:45;12.60;;;7.27;;
7835;SDS011;3963;42.658;23.298;2023-02-08T12:54:23;12.90;;;6.93;;
7835;SDS011;3963;42.658;23.298;2023-02-08T12:56:57;14.60;;;7.43;;
7835;SDS011;3963;42.658;23.298;2023-02-08T12:59:27;11.63;;;6.37;;
7835;SDS011;3963;42.658;23.298;2023-02-08T13:01:59;12.27;;;6.47;;
7835;SDS011;3963;42.658;23.298;2023-02-08T13:04:31;8.73;;;5.27;;
7835;SDS011;3963;42.658;23.298;2023-02-08T13:07:03;9.93;;;5.60;;
7835;SDS011;3963;42.658;23.298;2023-02-08T13:09:38;9.97;;;5.83;;
7835;SDS011;3963;42.658;23.298;2023-02-08T13:12:10;10.00;;;5.23;;
7835;SDS011;3963;42.658;23.298;2023-02-08T13:14:42;9.10;;;5.57;;
7835;SDS011;3963;42.658;23.298;2023-02-08T13:17:14;10.33;;;5.97;;
7835;SDS011;3963;42.658;23.298;2023-02-08T13:19:50;11.33;;;6.77;;
7835;SDS011;3963;42.658;23.298;2023-02-08T13:22:21;8.87;;;5.13;;
7835;SDS011;3963;42.658;23.298;2023-02-08T13:24:49;10.53;;;5.73;;
7835;SDS011;3963;42.658;23.298;2023-02-08T13:27:19;8.53;;;5.17;;
7835;SDS011;3963;42.658;23.298;2023-02-08T13:29:48;10.27;;;5.63;;
7835;SDS011;3963;42.658;23.298;2023-02-08T13:32:17;10.37;;;5.90;;
7835;SDS011;3963;42.658;23.298;2023-02-08T13:34:54;11.77;;;6.13;;
7835;SDS011;3963;42.658;23.298;2023-02-08T13:37:24;9.80;;;5.33;;
7835;SDS011;3963;42.658;23.298;2023-02-08T13:39:57;12.20;;;5.77;;
7835;SDS011;3963;42.658;23.298;2023-02-08T13:42:28;11.30;;;5.70;;
7835;SDS011;3963;42.658;23.298;2023-02-08T13:44:59;8.97;;;5.27;;
7835;SDS011;3963;42.658;23.298;2023-02-08T13:47:28;9.27;;;5.23;;
7835;SDS011;3963;42.658;23.298;2023-02-08T13:49:58;8.20;;;5.37;;
7835;SDS011;3963;42.658;23.298;2023-02-08T13:52:46;13.43;;;6.17;;
7835;SDS011;3963;42.658;23.298;2023-02-08T14:01:01;18.13;;;9.00;;
7835;SDS011;3963;42.658;23.298;2023-02-08T14:03:39;13.60;;;6.83;;
7835;SDS011;3963;42.658;23.298;2023-02-08T14:06:06;10.17;;;5.90;;
7835;SDS011;3963;42.658;23.298;2023-02-08T14:08:45;14.07;;;5.50;;
7835;SDS011;3963;42.658;23.298;2023-02-08T14:11:24;11.33;;;5.90;;
7835;SDS011;3963;42.658;23.298;2023-02-08T14:14:03;11.43;;;6.33;;
7835;SDS011;3963;42.658;23.298;2023-02-08T14:16:38;11.33;;;5.77;;
7835;SDS011;3963;42.658;23.298;2023-02-08T14:19:20;13.93;;;6.47;;
7835;SDS011;3963;42.658;23.298;2023-02-08T14:21:58;13.17;;;6.10;;
7835;SDS011;3963;42.658;23.298;2023-02-08T14:24:28;11.37;;;6.53;;
7835;SDS011;3963;42.658;23.298;2023-02-08T14:27:04;9.80;;;6.17;;
7835;SDS011;3963;42.658;23.298;2023-02-08T14:29:36;14.97;;;5.67;;
7835;SDS011;3963;42.658;23.298;2023-02-08T14:32:03;12.60;;;6.67;;
7835;SDS011;3963;42.658;23.298;2023-02-08T14:34:32;11.93;;;7.10;;
7835;SDS011;3963;42.658;23.298;2023-02-08T14:37:03;12.57;;;6.93;;
7835;SDS011;3963;42.658;23.298;2023-02-08T14:39:32;14.33;;;6.67;;
7835;SDS011;3963;42.658;23.298;2023-02-08T14:42:01;12.57;;;6.50;;
7835;SDS011;3963;42.658;23.298;2023-02-08T14:50:40;12.17;;;6.63;;
7835;SDS011;3963;42.658;23.298;2023-02-08T14:53:16;14.07;;;6.87;;
7835;SDS011;3963;42.658;23.298;2023-02-08T14:55:49;16.57;;;7.77;;
7835;SDS011;3963;42.658;23.298;2023-02-08T14:58:23;13.53;;;7.77;;
7835;SDS011;3963;42.658;23.298;2023-02-08T15:00:54;16.20;;;8.93;;
7835;SDS011;3963;42.658;23.298;2023-02-08T15:03:24;24.97;;;14.23;;
7835;SDS011;3963;42.658;23.298;2023-02-08T15:06:05;14.77;;;7.37;;
7835;SDS011;3963;42.658;23.298;2023-02-08T15:08:47;15.23;;;7.17;;
7835;SDS011;3963;42.658;23.298;2023-02-08T15:11:21;15.27;;;7.67;;
7835;SDS011;3963;42.658;23.298;2023-02-08T15:13:49;12.67;;;6.87;;
7835;SDS011;3963;42.658;23.298;2023-02-08T15:16:20;14.30;;;7.37;;
7835;SDS011;3963;42.658;23.298;2023-02-08T15:18:53;15.73;;;8.27;;
7835;SDS011;3963;42.658;23.298;2023-02-08T15:21:21;12.70;;;7.07;;